sensor_id;sensor_type;location;lat;lon;timestamp;P1;durP1;ratioP1;P2;durP2;ratioP2
62977;SDS011;49073;42.352;23.808;2022-08-16T00:01:02;17.77;;;11.60;;
62977;SDS011;49073;42.352;23.808;2022-08-16T00:04:03;15.38;;;10.75;;
62977;SDS011;49073;42.352;23.808;2022-08-16T00:07:04;16.92;;;10.85;;
62977;SDS011;49073;42.352;23.808;2022-08-16T00:10:06;13.77;;;10.48;;
62977;SDS011;49073;42.352;23.808;2022-08-16T00:13:09;17.38;;;11.68;;
62977;SDS011;49073;42.352;23.808;2022-08-16T00:16:10;13.90;;;10.82;;
62977;SDS011;49073;42.352;23.808;2022-08-16T00:19:12;14.43;;;10.82;;
62977;SDS011;49073;42.352;23.808;2022-08-16T00:22:20;15.10;;;11.15;;
62977;SDS011;49073;42.352;23.808;2022-08-16T00:25:22;15.40;;;11.05;;
62977;SDS011;49073;42.352;23.808;2022-08-16T00:28:23;18.27;;;12.50;;
62977;SDS011;49073;42.352;23.808;2022-08-16T00:31:25;17.45;;;12.60;;
62977;SDS011;49073;42.352;23.808;2022-08-16T00:34:25;18.52;;;12.38;;
62977;SDS011;49073;42.352;23.808;2022-08-16T00:37:26;17.88;;;12.00;;
62977;SDS011;49073;42.352;23.808;2022-08-16T00:40:32;17.42;;;11.60;;
62977;SDS011;49073;42.352;23.808;2022-08-16T00:43:39;16.13;;;12.77;;
62977;SDS011;49073;42.352;23.808;2022-08-16T00:46:45;16.58;;;12.18;;
62977;SDS011;49073;42.352;23.808;2022-08-16T00:49:52;17.95;;;12.82;;
62977;SDS011;49073;42.352;23.808;2022-08-16T00:52:54;16.92;;;12.65;;
62977;SDS011;49073;42.352;23.808;2022-08-16T00:55:55;19.27;;;12.50;;
62977;SDS011;49073;42.352;23.808;2022-08-16T00:58:59;17.27;;;12.10;;
62977;SDS011;49073;42.352;23.808;2022-08-16T01:02:02;16.90;;;13.02;;
62977;SDS011;49073;42.352;23.808;2022-08-16T01:05:05;20.90;;;12.55;;
62977;SDS011;49073;42.352;23.808;2022-08-16T01:08:06;17.90;;;12.32;;
62977;SDS011;49073;42.352;23.808;2022-08-16T01:11:08;16.45;;;12.75;;
62977;SDS011;49073;42.352;23.808;2022-08-16T01:14:22;16.35;;;12.40;;
62977;SDS011;49073;42.352;23.808;2022-08-16T01:17:29;17.25;;;12.73;;
62977;SDS011;49073;42.352;23.808;2022-08-16T01:20:33;18.95;;;13.57;;
62977;SDS011;49073;42.352;23.808;2022-08-16T01:23:50;17.45;;;12.98;;
62977;SDS011;49073;42.352;23.808;2022-08-16T01:26:56;15.98;;;12.52;;
62977;SDS011;49073;42.352;23.808;2022-08-16T01:30:20;16.27;;;12.35;;
62977;SDS011;49073;42.352;23.808;2022-08-16T01:33:23;15.10;;;11.90;;
62977;SDS011;49073;42.352;23.808;2022-08-16T01:36:24;18.38;;;12.00;;
62977;SDS011;49073;42.352;23.808;2022-08-16T01:39:25;16.60;;;12.50;;
62977;SDS011;49073;42.352;23.808;2022-08-16T01:42:25;19.70;;;11.77;;
62977;SDS011;49073;42.352;23.808;2022-08-16T01:45:26;16.83;;;11.48;;
62977;SDS011;49073;42.352;23.808;2022-08-16T01:48:28;15.20;;;11.85;;
62977;SDS011;49073;42.352;23.808;2022-08-16T01:51:31;16.50;;;11.35;;
62977;SDS011;49073;42.352;23.808;2022-08-16T01:54:32;13.32;;;10.38;;
62977;SDS011;49073;42.352;23.808;2022-08-16T01:57:32;16.38;;;11.15;;
62977;SDS011;49073;42.352;23.808;2022-08-16T02:00:33;16.25;;;11.40;;
62977;SDS011;49073;42.352;23.808;2022-08-16T02:03:34;16.83;;;12.18;;
62977;SDS011;49073;42.352;23.808;2022-08-16T02:06:34;14.65;;;11.13;;
62977;SDS011;49073;42.352;23.808;2022-08-16T02:09:36;15.45;;;10.20;;
62977;SDS011;49073;42.352;23.808;2022-08-16T02:12:38;15.30;;;11.40;;
62977;SDS011;49073;42.352;23.808;2022-08-16T02:15:39;14.85;;;10.55;;
62977;SDS011;49073;42.352;23.808;2022-08-16T02:18:40;20.15;;;10.90;;
62977;SDS011;49073;42.352;23.808;2022-08-16T02:21:40;12.90;;;10.55;;
62977;SDS011;49073;42.352;23.808;2022-08-16T02:24:42;14.10;;;10.25;;
62977;SDS011;49073;42.352;23.808;2022-08-16T02:27:43;13.90;;;10.32;;
62977;SDS011;49073;42.352;23.808;2022-08-16T02:30:45;12.82;;;10.35;;
62977;SDS011;49073;42.352;23.808;2022-08-16T02:33:46;15.82;;;10.65;;
62977;SDS011;49073;42.352;23.808;2022-08-16T02:36:47;13.75;;;10.20;;
62977;SDS011;49073;42.352;23.808;2022-08-16T02:39:47;13.38;;;10.20;;
62977;SDS011;49073;42.352;23.808;2022-08-16T02:42:48;13.23;;;10.48;;
62977;SDS011;49073;42.352;23.808;2022-08-16T02:45:50;13.80;;;10.25;;
62977;SDS011;49073;42.352;23.808;2022-08-16T02:48:50;11.95;;;10.00;;
62977;SDS011;49073;42.352;23.808;2022-08-16T02:51:51;13.02;;;10.45;;
62977;SDS011;49073;42.352;23.808;2022-08-16T02:54:51;14.35;;;10.98;;
62977;SDS011;49073;42.352;23.808;2022-08-16T02:57:52;17.27;;;10.82;;
62977;SDS011;49073;42.352;23.808;2022-08-16T03:00:53;13.77;;;10.32;;
62977;SDS011;49073;42.352;23.808;2022-08-16T03:03:54;15.50;;;10.82;;
62977;SDS011;49073;42.352;23.808;2022-08-16T03:06:55;13.77;;;9.70;;
62977;SDS011;49073;42.352;23.808;2022-08-16T03:09:56;13.13;;;10.52;;
62977;SDS011;49073;42.352;23.808;2022-08-16T03:12:56;13.88;;;11.10;;
62977;SDS011;49073;42.352;23.808;2022-08-16T03:15:58;16.95;;;11.52;;
62977;SDS011;49073;42.352;23.808;2022-08-16T03:18:59;13.35;;;9.48;;
62977;SDS011;49073;42.352;23.808;2022-08-16T03:21:59;13.68;;;9.95;;
62977;SDS011;49073;42.352;23.808;2022-08-16T03:25:00;13.43;;;8.90;;
62977;SDS011;49073;42.352;23.808;2022-08-16T03:28:04;13.63;;;9.50;;
62977;SDS011;49073;42.352;23.808;2022-08-16T03:31:06;12.52;;;9.55;;
62977;SDS011;49073;42.352;23.808;2022-08-16T03:34:07;14.10;;;10.38;;
62977;SDS011;49073;42.352;23.808;2022-08-16T03:37:08;11.55;;;8.48;;
62977;SDS011;49073;42.352;23.808;2022-08-16T03:40:09;10.88;;;9.38;;
62977;SDS011;49073;42.352;23.808;2022-08-16T03:43:10;12.88;;;9.60;;
62977;SDS011;49073;42.352;23.808;2022-08-16T03:46:12;14.43;;;9.15;;
62977;SDS011;49073;42.352;23.808;2022-08-16T03:49:13;17.65;;;9.85;;
62977;SDS011;49073;42.352;23.808;2022-08-16T03:52:14;13.18;;;9.95;;
62977;SDS011;49073;42.352;23.808;2022-08-16T03:55:14;15.02;;;9.82;;
62977;SDS011;49073;42.352;23.808;2022-08-16T03:58:16;11.57;;;9.32;;
62977;SDS011;49073;42.352;23.808;2022-08-16T04:01:20;13.25;;;8.93;;
62977;SDS011;49073;42.352;23.808;2022-08-16T04:04:21;13.50;;;8.98;;
62977;SDS011;49073;42.352;23.808;2022-08-16T04:07:22;10.73;;;8.10;;
62977;SDS011;49073;42.352;23.808;2022-08-16T04:10:22;16.20;;;8.70;;
62977;SDS011;49073;42.352;23.808;2022-08-16T04:13:23;14.43;;;9.20;;
62977;SDS011;49073;42.352;23.808;2022-08-16T04:16:24;13.32;;;9.65;;
62977;SDS011;49073;42.352;23.808;2022-08-16T04:19:24;12.73;;;9.85;;
62977;SDS011;49073;42.352;23.808;2022-08-16T04:22:26;16.35;;;9.40;;
62977;SDS011;49073;42.352;23.808;2022-08-16T04:25:27;14.02;;;10.10;;
62977;SDS011;49073;42.352;23.808;2022-08-16T04:28:28;14.13;;;9.43;;
62977;SDS011;49073;42.352;23.808;2022-08-16T04:31:30;11.88;;;10.02;;
62977;SDS011;49073;42.352;23.808;2022-08-16T04:34:31;11.93;;;8.75;;
62977;SDS011;49073;42.352;23.808;2022-08-16T04:37:33;13.15;;;10.38;;
62977;SDS011;49073;42.352;23.808;2022-08-16T04:40:34;11.32;;;9.38;;
62977;SDS011;49073;42.352;23.808;2022-08-16T04:43:34;15.30;;;10.02;;
62977;SDS011;49073;42.352;23.808;2022-08-16T04:46:37;14.20;;;9.93;;
62977;SDS011;49073;42.352;23.808;2022-08-16T04:49:41;13.93;;;9.57;;
62977;SDS011;49073;42.352;23.808;2022-08-16T04:52:44;16.27;;;10.23;;
62977;SDS011;49073;42.352;23.808;2022-08-16T04:55:46;13.35;;;9.68;;
62977;SDS011;49073;42.352;23.808;2022-08-16T04:58:46;13.63;;;10.02;;
62977;SDS011;49073;42.352;23.808;2022-08-16T05:01:47;13.02;;;9.85;;
62977;SDS011;49073;42.352;23.808;2022-08-16T05:04:48;15.80;;;10.05;;
62977;SDS011;49073;42.352;23.808;2022-08-16T05:07:49;15.93;;;10.75;;
62977;SDS011;49073;42.352;23.808;2022-08-16T05:10:50;15.77;;;9.70;;
62977;SDS011;49073;42.352;23.808;2022-08-16T05:13:52;13.93;;;9.85;;
62977;SDS011;49073;42.352;23.808;2022-08-16T05:16:53;17.73;;;9.70;;
62977;SDS011;49073;42.352;23.808;2022-08-16T05:19:54;15.27;;;9.45;;
62977;SDS011;49073;42.352;23.808;2022-08-16T05:22:55;17.42;;;9.10;;
62977;SDS011;49073;42.352;23.808;2022-08-16T05:25:55;9.93;;;8.20;;
62977;SDS011;49073;42.352;23.808;2022-08-16T05:28:56;11.07;;;7.75;;
62977;SDS011;49073;42.352;23.808;2022-08-16T05:31:57;9.65;;;7.53;;
62977;SDS011;49073;42.352;23.808;2022-08-16T05:34:58;10.40;;;7.70;;
62977;SDS011;49073;42.352;23.808;2022-08-16T05:37:58;9.77;;;7.20;;
62977;SDS011;49073;42.352;23.808;2022-08-16T05:40:59;11.43;;;7.30;;
62977;SDS011;49073;42.352;23.808;2022-08-16T05:44:01;12.20;;;7.05;;
62977;SDS011;49073;42.352;23.808;2022-08-16T05:47:02;9.25;;;6.65;;
62977;SDS011;49073;42.352;23.808;2022-08-16T05:50:04;12.50;;;6.70;;
62977;SDS011;49073;42.352;23.808;2022-08-16T05:53:05;14.35;;;7.05;;
62977;SDS011;49073;42.352;23.808;2022-08-16T05:56:05;11.77;;;6.70;;
62977;SDS011;49073;42.352;23.808;2022-08-16T05:59:06;8.50;;;6.47;;
62977;SDS011;49073;42.352;23.808;2022-08-16T06:02:07;8.60;;;6.53;;
62977;SDS011;49073;42.352;23.808;2022-08-16T06:05:08;11.05;;;6.95;;
62977;SDS011;49073;42.352;23.808;2022-08-16T06:08:09;8.98;;;7.00;;
62977;SDS011;49073;42.352;23.808;2022-08-16T06:11:09;7.90;;;5.82;;
62977;SDS011;49073;42.352;23.808;2022-08-16T06:14:11;8.55;;;5.90;;
62977;SDS011;49073;42.352;23.808;2022-08-16T06:17:12;6.78;;;4.90;;
62977;SDS011;49073;42.352;23.808;2022-08-16T06:20:19;6.30;;;5.18;;
62977;SDS011;49073;42.352;23.808;2022-08-16T06:23:23;6.63;;;4.70;;
62977;SDS011;49073;42.352;23.808;2022-08-16T06:26:25;7.53;;;4.90;;
62977;SDS011;49073;42.352;23.808;2022-08-16T06:29:25;4.70;;;4.20;;
62977;SDS011;49073;42.352;23.808;2022-08-16T06:32:26;5.97;;;4.45;;
62977;SDS011;49073;42.352;23.808;2022-08-16T06:35:26;7.03;;;4.47;;
62977;SDS011;49073;42.352;23.808;2022-08-16T06:38:27;6.60;;;4.00;;
62977;SDS011;49073;42.352;23.808;2022-08-16T06:41:28;7.57;;;4.78;;
62977;SDS011;49073;42.352;23.808;2022-08-16T06:44:29;7.18;;;4.63;;
62977;SDS011;49073;42.352;23.808;2022-08-16T06:47:29;6.68;;;4.30;;
62977;SDS011;49073;42.352;23.808;2022-08-16T06:50:30;7.53;;;4.90;;
62977;SDS011;49073;42.352;23.808;2022-08-16T06:53:32;8.15;;;5.13;;
62977;SDS011;49073;42.352;23.808;2022-08-16T06:56:34;8.40;;;4.60;;
62977;SDS011;49073;42.352;23.808;2022-08-16T06:59:36;5.50;;;4.75;;
62977;SDS011;49073;42.352;23.808;2022-08-16T07:02:37;4.95;;;4.18;;
62977;SDS011;49073;42.352;23.808;2022-08-16T07:05:38;7.70;;;4.45;;
62977;SDS011;49073;42.352;23.808;2022-08-16T07:08:40;5.75;;;4.53;;
62977;SDS011;49073;42.352;23.808;2022-08-16T07:11:41;9.77;;;4.38;;
62977;SDS011;49073;42.352;23.808;2022-08-16T07:14:43;9.88;;;4.40;;
62977;SDS011;49073;42.352;23.808;2022-08-16T07:17:44;6.63;;;4.20;;
62977;SDS011;49073;42.352;23.808;2022-08-16T07:20:46;6.05;;;4.38;;
62977;SDS011;49073;42.352;23.808;2022-08-16T07:23:48;6.30;;;4.82;;
62977;SDS011;49073;42.352;23.808;2022-08-16T07:26:49;5.28;;;4.03;;
62977;SDS011;49073;42.352;23.808;2022-08-16T07:29:49;7.45;;;4.53;;
62977;SDS011;49073;42.352;23.808;2022-08-16T07:32:50;6.93;;;4.68;;
62977;SDS011;49073;42.352;23.808;2022-08-16T07:35:50;4.82;;;4.10;;
62977;SDS011;49073;42.352;23.808;2022-08-16T07:38:51;5.18;;;4.00;;
62977;SDS011;49073;42.352;23.808;2022-08-16T07:41:51;6.60;;;4.95;;
62977;SDS011;49073;42.352;23.808;2022-08-16T07:44:52;5.95;;;4.43;;
62977;SDS011;49073;42.352;23.808;2022-08-16T07:47:53;7.25;;;3.97;;
62977;SDS011;49073;42.352;23.808;2022-08-16T07:50:54;5.72;;;3.83;;
62977;SDS011;49073;42.352;23.808;2022-08-16T07:53:54;6.15;;;4.60;;
62977;SDS011;49073;42.352;23.808;2022-08-16T07:56:55;5.50;;;4.57;;
62977;SDS011;49073;42.352;23.808;2022-08-16T07:59:55;6.03;;;4.00;;
62977;SDS011;49073;42.352;23.808;2022-08-16T08:02:56;6.40;;;4.20;;
62977;SDS011;49073;42.352;23.808;2022-08-16T08:05:58;8.45;;;5.47;;
62977;SDS011;49073;42.352;23.808;2022-08-16T08:09:00;5.72;;;4.20;;
62977;SDS011;49073;42.352;23.808;2022-08-16T08:12:02;4.45;;;3.80;;
62977;SDS011;49073;42.352;23.808;2022-08-16T08:15:05;4.35;;;3.30;;
62977;SDS011;49073;42.352;23.808;2022-08-16T08:18:07;4.88;;;3.95;;
62977;SDS011;49073;42.352;23.808;2022-08-16T08:21:08;5.38;;;3.67;;
62977;SDS011;49073;42.352;23.808;2022-08-16T08:24:09;3.92;;;3.22;;
62977;SDS011;49073;42.352;23.808;2022-08-16T08:27:11;11.07;;;4.30;;
62977;SDS011;49073;42.352;23.808;2022-08-16T08:30:12;4.70;;;4.05;;
62977;SDS011;49073;42.352;23.808;2022-08-16T08:33:13;6.78;;;3.85;;
62977;SDS011;49073;42.352;23.808;2022-08-16T08:36:16;4.78;;;4.13;;
62977;SDS011;49073;42.352;23.808;2022-08-16T08:39:28;5.90;;;4.20;;
62977;SDS011;49073;42.352;23.808;2022-08-16T08:42:29;5.82;;;4.20;;
62977;SDS011;49073;42.352;23.808;2022-08-16T08:45:30;4.38;;;3.55;;
62977;SDS011;49073;42.352;23.808;2022-08-16T08:48:30;4.80;;;3.95;;
62977;SDS011;49073;42.352;23.808;2022-08-16T08:51:31;6.88;;;4.40;;
62977;SDS011;49073;42.352;23.808;2022-08-16T08:54:31;5.18;;;3.95;;
62977;SDS011;49073;42.352;23.808;2022-08-16T08:57:32;5.47;;;4.75;;
62977;SDS011;49073;42.352;23.808;2022-08-16T09:00:33;6.20;;;4.75;;
62977;SDS011;49073;42.352;23.808;2022-08-16T09:03:34;7.03;;;5.05;;
62977;SDS011;49073;42.352;23.808;2022-08-16T09:06:37;5.28;;;4.78;;
62977;SDS011;49073;42.352;23.808;2022-08-16T09:09:38;5.90;;;5.30;;
62977;SDS011;49073;42.352;23.808;2022-08-16T09:12:39;7.18;;;4.78;;
62977;SDS011;49073;42.352;23.808;2022-08-16T09:15:41;6.40;;;4.93;;
62977;SDS011;49073;42.352;23.808;2022-08-16T09:18:43;5.70;;;4.75;;
62977;SDS011;49073;42.352;23.808;2022-08-16T09:21:44;5.90;;;4.95;;
62977;SDS011;49073;42.352;23.808;2022-08-16T09:24:45;5.40;;;4.53;;
62977;SDS011;49073;42.352;23.808;2022-08-16T09:27:46;6.13;;;4.93;;
62977;SDS011;49073;42.352;23.808;2022-08-16T09:30:47;7.38;;;5.13;;
62977;SDS011;49073;42.352;23.808;2022-08-16T09:33:49;7.25;;;4.65;;
62977;SDS011;49073;42.352;23.808;2022-08-16T09:36:51;5.78;;;4.85;;
62977;SDS011;49073;42.352;23.808;2022-08-16T09:39:55;5.65;;;4.75;;
62977;SDS011;49073;42.352;23.808;2022-08-16T09:42:59;5.18;;;4.43;;
62977;SDS011;49073;42.352;23.808;2022-08-16T09:46:00;5.32;;;4.20;;
62977;SDS011;49073;42.352;23.808;2022-08-16T09:49:03;5.57;;;4.78;;
62977;SDS011;49073;42.352;23.808;2022-08-16T09:52:04;6.30;;;4.40;;
62977;SDS011;49073;42.352;23.808;2022-08-16T09:55:08;5.68;;;4.35;;
62977;SDS011;49073;42.352;23.808;2022-08-16T09:58:12;5.90;;;3.85;;
62977;SDS011;49073;42.352;23.808;2022-08-16T10:01:13;5.32;;;4.57;;
62977;SDS011;49073;42.352;23.808;2022-08-16T10:04:14;6.97;;;3.80;;
62977;SDS011;49073;42.352;23.808;2022-08-16T10:07:15;5.85;;;4.70;;
62977;SDS011;49073;42.352;23.808;2022-08-16T10:10:18;5.53;;;4.10;;
62977;SDS011;49073;42.352;23.808;2022-08-16T10:13:21;5.35;;;4.28;;
62977;SDS011;49073;42.352;23.808;2022-08-16T10:16:22;4.88;;;4.35;;
62977;SDS011;49073;42.352;23.808;2022-08-16T10:19:23;5.85;;;4.07;;
62977;SDS011;49073;42.352;23.808;2022-08-16T10:22:24;5.65;;;4.63;;
62977;SDS011;49073;42.352;23.808;2022-08-16T10:25:24;4.20;;;3.78;;
62977;SDS011;49073;42.352;23.808;2022-08-16T10:28:25;5.22;;;4.60;;
62977;SDS011;49073;42.352;23.808;2022-08-16T10:31:27;4.75;;;4.10;;
62977;SDS011;49073;42.352;23.808;2022-08-16T10:34:28;4.88;;;3.83;;
62977;SDS011;49073;42.352;23.808;2022-08-16T10:37:29;7.18;;;4.22;;
62977;SDS011;49073;42.352;23.808;2022-08-16T10:40:30;6.68;;;4.50;;
62977;SDS011;49073;42.352;23.808;2022-08-16T10:43:30;5.95;;;3.90;;
62977;SDS011;49073;42.352;23.808;2022-08-16T10:46:31;5.15;;;4.32;;
62977;SDS011;49073;42.352;23.808;2022-08-16T10:49:33;5.43;;;4.03;;
62977;SDS011;49073;42.352;23.808;2022-08-16T10:52:35;5.47;;;3.90;;
62977;SDS011;49073;42.352;23.808;2022-08-16T10:55:37;5.90;;;4.20;;
62977;SDS011;49073;42.352;23.808;2022-08-16T10:58:39;5.75;;;4.47;;
62977;SDS011;49073;42.352;23.808;2022-08-16T11:01:40;6.13;;;3.88;;
62977;SDS011;49073;42.352;23.808;2022-08-16T11:04:40;5.03;;;3.70;;
62977;SDS011;49073;42.352;23.808;2022-08-16T11:07:43;4.90;;;3.92;;
62977;SDS011;49073;42.352;23.808;2022-08-16T11:10:48;4.72;;;3.85;;
62977;SDS011;49073;42.352;23.808;2022-08-16T11:13:49;6.13;;;3.90;;
62977;SDS011;49073;42.352;23.808;2022-08-16T11:16:52;5.22;;;3.67;;
62977;SDS011;49073;42.352;23.808;2022-08-16T11:19:52;3.95;;;3.25;;
62977;SDS011;49073;42.352;23.808;2022-08-16T11:22:53;5.90;;;3.78;;
62977;SDS011;49073;42.352;23.808;2022-08-16T11:25:54;5.13;;;4.10;;
62977;SDS011;49073;42.352;23.808;2022-08-16T11:28:55;6.38;;;4.32;;
62977;SDS011;49073;42.352;23.808;2022-08-16T11:31:57;4.80;;;3.92;;
62977;SDS011;49073;42.352;23.808;2022-08-16T11:34:58;4.28;;;3.80;;
62977;SDS011;49073;42.352;23.808;2022-08-16T11:38:21;5.55;;;4.00;;
62977;SDS011;49073;42.352;23.808;2022-08-16T11:41:21;5.40;;;4.65;;
62977;SDS011;49073;42.352;23.808;2022-08-16T11:44:22;7.13;;;4.10;;
62977;SDS011;49073;42.352;23.808;2022-08-16T11:47:23;5.65;;;3.50;;
62977;SDS011;49073;42.352;23.808;2022-08-16T11:50:24;6.18;;;4.30;;
62977;SDS011;49073;42.352;23.808;2022-08-16T11:53:25;7.75;;;3.95;;
62977;SDS011;49073;42.352;23.808;2022-08-16T11:56:27;5.95;;;4.18;;
62977;SDS011;49073;42.352;23.808;2022-08-16T11:59:28;7.63;;;4.65;;
62977;SDS011;49073;42.352;23.808;2022-08-16T12:02:28;4.60;;;3.90;;
62977;SDS011;49073;42.352;23.808;2022-08-16T12:05:29;5.50;;;4.20;;
62977;SDS011;49073;42.352;23.808;2022-08-16T12:08:30;7.20;;;4.82;;
62977;SDS011;49073;42.352;23.808;2022-08-16T12:11:31;5.50;;;4.15;;
62977;SDS011;49073;42.352;23.808;2022-08-16T12:14:32;5.65;;;4.10;;
62977;SDS011;49073;42.352;23.808;2022-08-16T12:17:34;8.73;;;4.22;;
62977;SDS011;49073;42.352;23.808;2022-08-16T12:20:36;5.38;;;4.22;;
62977;SDS011;49073;42.352;23.808;2022-08-16T12:23:38;6.22;;;4.53;;
62977;SDS011;49073;42.352;23.808;2022-08-16T12:26:39;6.68;;;4.38;;
62977;SDS011;49073;42.352;23.808;2022-08-16T12:29:40;6.43;;;4.15;;
62977;SDS011;49073;42.352;23.808;2022-08-16T12:32:41;4.82;;;3.95;;
62977;SDS011;49073;42.352;23.808;2022-08-16T12:35:43;6.07;;;4.40;;
62977;SDS011;49073;42.352;23.808;2022-08-16T12:38:46;6.00;;;4.07;;
62977;SDS011;49073;42.352;23.808;2022-08-16T12:41:48;4.40;;;4.00;;
62977;SDS011;49073;42.352;23.808;2022-08-16T12:44:49;6.78;;;4.65;;
62977;SDS011;49073;42.352;23.808;2022-08-16T12:47:50;4.20;;;3.70;;
62977;SDS011;49073;42.352;23.808;2022-08-16T12:51:12;4.88;;;3.70;;
62977;SDS011;49073;42.352;23.808;2022-08-16T12:54:14;4.85;;;4.00;;
62977;SDS011;49073;42.352;23.808;2022-08-16T12:57:15;8.07;;;4.30;;
62977;SDS011;49073;42.352;23.808;2022-08-16T13:00:15;6.32;;;4.32;;
62977;SDS011;49073;42.352;23.808;2022-08-16T13:03:18;4.63;;;3.97;;
62977;SDS011;49073;42.352;23.808;2022-08-16T13:06:19;6.70;;;4.65;;
62977;SDS011;49073;42.352;23.808;2022-08-16T13:09:20;6.20;;;3.80;;
62977;SDS011;49073;42.352;23.808;2022-08-16T13:12:24;6.03;;;4.38;;
62977;SDS011;49073;42.352;23.808;2022-08-16T13:15:27;6.25;;;3.95;;
62977;SDS011;49073;42.352;23.808;2022-08-16T13:18:28;8.50;;;4.63;;
62977;SDS011;49073;42.352;23.808;2022-08-16T13:21:29;6.15;;;3.60;;
62977;SDS011;49073;42.352;23.808;2022-08-16T13:24:29;5.00;;;3.67;;
62977;SDS011;49073;42.352;23.808;2022-08-16T13:27:30;6.90;;;4.38;;
62977;SDS011;49073;42.352;23.808;2022-08-16T13:30:35;10.20;;;4.47;;
62977;SDS011;49073;42.352;23.808;2022-08-16T13:33:39;6.93;;;4.82;;
62977;SDS011;49073;42.352;23.808;2022-08-16T13:36:40;7.35;;;4.32;;
62977;SDS011;49073;42.352;23.808;2022-08-16T13:39:41;7.50;;;4.50;;
62977;SDS011;49073;42.352;23.808;2022-08-16T13:42:42;5.97;;;4.70;;
62977;SDS011;49073;42.352;23.808;2022-08-16T13:45:43;7.47;;;4.80;;
62977;SDS011;49073;42.352;23.808;2022-08-16T13:48:43;7.63;;;4.60;;
62977;SDS011;49073;42.352;23.808;2022-08-16T13:51:44;6.93;;;4.25;;
62977;SDS011;49073;42.352;23.808;2022-08-16T13:54:44;6.57;;;5.30;;
62977;SDS011;49073;42.352;23.808;2022-08-16T13:57:45;5.88;;;4.35;;
62977;SDS011;49073;42.352;23.808;2022-08-16T14:00:45;7.47;;;4.43;;
62977;SDS011;49073;42.352;23.808;2022-08-16T14:03:46;9.30;;;4.80;;
62977;SDS011;49073;42.352;23.808;2022-08-16T14:06:46;6.22;;;4.18;;
62977;SDS011;49073;42.352;23.808;2022-08-16T14:09:47;5.18;;;4.15;;
62977;SDS011;49073;42.352;23.808;2022-08-16T14:12:48;7.55;;;3.95;;
62977;SDS011;49073;42.352;23.808;2022-08-16T14:15:51;6.78;;;4.75;;
62977;SDS011;49073;42.352;23.808;2022-08-16T14:18:51;5.90;;;4.65;;
62977;SDS011;49073;42.352;23.808;2022-08-16T14:21:54;5.95;;;3.97;;
62977;SDS011;49073;42.352;23.808;2022-08-16T14:24:57;4.60;;;3.45;;
62977;SDS011;49073;42.352;23.808;2022-08-16T14:27:58;7.60;;;3.78;;
62977;SDS011;49073;42.352;23.808;2022-08-16T14:30:59;8.65;;;3.35;;
62977;SDS011;49073;42.352;23.808;2022-08-16T14:33:59;3.83;;;3.30;;
62977;SDS011;49073;42.352;23.808;2022-08-16T14:37:00;9.52;;;3.25;;
62977;SDS011;49073;42.352;23.808;2022-08-16T14:40:05;22.50;;;3.60;;
62977;SDS011;49073;42.352;23.808;2022-08-16T14:43:07;5.95;;;3.28;;
62977;SDS011;49073;42.352;23.808;2022-08-16T14:46:08;4.78;;;2.90;;
62977;SDS011;49073;42.352;23.808;2022-08-16T14:49:08;5.60;;;3.33;;
62977;SDS011;49073;42.352;23.808;2022-08-16T14:52:10;5.63;;;2.97;;
62977;SDS011;49073;42.352;23.808;2022-08-16T14:55:14;4.43;;;2.95;;
62977;SDS011;49073;42.352;23.808;2022-08-16T14:58:15;5.45;;;2.95;;
62977;SDS011;49073;42.352;23.808;2022-08-16T15:01:16;5.10;;;2.60;;
62977;SDS011;49073;42.352;23.808;2022-08-16T15:04:16;5.72;;;3.40;;
62977;SDS011;49073;42.352;23.808;2022-08-16T15:07:18;5.10;;;3.40;;
62977;SDS011;49073;42.352;23.808;2022-08-16T15:10:21;7.10;;;3.67;;
62977;SDS011;49073;42.352;23.808;2022-08-16T15:13:22;7.57;;;3.92;;
62977;SDS011;49073;42.352;23.808;2022-08-16T15:16:22;12.40;;;4.03;;
62977;SDS011;49073;42.352;23.808;2022-08-16T15:19:23;4.93;;;3.38;;
62977;SDS011;49073;42.352;23.808;2022-08-16T15:22:30;5.00;;;3.25;;
62977;SDS011;49073;42.352;23.808;2022-08-16T15:25:43;8.70;;;3.55;;
62977;SDS011;49073;42.352;23.808;2022-08-16T15:28:48;6.72;;;4.03;;
62977;SDS011;49073;42.352;23.808;2022-08-16T15:31:49;4.95;;;3.85;;
62977;SDS011;49073;42.352;23.808;2022-08-16T15:34:50;5.13;;;3.58;;
62977;SDS011;49073;42.352;23.808;2022-08-16T15:37:51;7.00;;;4.18;;
62977;SDS011;49073;42.352;23.808;2022-08-16T15:40:52;4.40;;;3.28;;
62977;SDS011;49073;42.352;23.808;2022-08-16T15:43:53;5.47;;;4.25;;
62977;SDS011;49073;42.352;23.808;2022-08-16T15:46:54;8.75;;;4.22;;
62977;SDS011;49073;42.352;23.808;2022-08-16T15:49:55;7.72;;;3.85;;
62977;SDS011;49073;42.352;23.808;2022-08-16T15:52:57;16.33;;;4.60;;
62977;SDS011;49073;42.352;23.808;2022-08-16T15:56:02;8.25;;;3.70;;
62977;SDS011;49073;42.352;23.808;2022-08-16T15:59:03;6.20;;;4.10;;
62977;SDS011;49073;42.352;23.808;2022-08-16T16:02:03;4.38;;;3.58;;
62977;SDS011;49073;42.352;23.808;2022-08-16T16:05:04;6.38;;;3.72;;
62977;SDS011;49073;42.352;23.808;2022-08-16T16:08:06;6.50;;;4.40;;
62977;SDS011;49073;42.352;23.808;2022-08-16T16:11:07;8.27;;;4.13;;
62977;SDS011;49073;42.352;23.808;2022-08-16T16:14:08;7.13;;;4.00;;
62977;SDS011;49073;42.352;23.808;2022-08-16T16:17:08;5.05;;;3.85;;
62977;SDS011;49073;42.352;23.808;2022-08-16T16:20:09;4.90;;;3.58;;
62977;SDS011;49073;42.352;23.808;2022-08-16T16:23:10;13.63;;;4.93;;
62977;SDS011;49073;42.352;23.808;2022-08-16T16:26:12;6.68;;;4.05;;
62977;SDS011;49073;42.352;23.808;2022-08-16T16:29:14;7.13;;;4.10;;
62977;SDS011;49073;42.352;23.808;2022-08-16T16:32:14;5.05;;;3.47;;
62977;SDS011;49073;42.352;23.808;2022-08-16T16:35:16;8.63;;;4.22;;
62977;SDS011;49073;42.352;23.808;2022-08-16T16:38:17;8.57;;;3.60;;
62977;SDS011;49073;42.352;23.808;2022-08-16T16:41:19;8.05;;;4.28;;
62977;SDS011;49073;42.352;23.808;2022-08-16T16:44:23;6.03;;;3.72;;
62977;SDS011;49073;42.352;23.808;2022-08-16T16:47:23;5.43;;;3.80;;
62977;SDS011;49073;42.352;23.808;2022-08-16T16:50:25;7.97;;;4.13;;
62977;SDS011;49073;42.352;23.808;2022-08-16T16:53:28;6.82;;;4.10;;
62977;SDS011;49073;42.352;23.808;2022-08-16T16:56:29;7.40;;;4.00;;
62977;SDS011;49073;42.352;23.808;2022-08-16T16:59:33;6.15;;;3.90;;
62977;SDS011;49073;42.352;23.808;2022-08-16T17:02:34;5.32;;;3.67;;
62977;SDS011;49073;42.352;23.808;2022-08-16T17:05:36;5.07;;;4.13;;
62977;SDS011;49073;42.352;23.808;2022-08-16T17:08:38;6.95;;;4.20;;
62977;SDS011;49073;42.352;23.808;2022-08-16T17:11:40;5.78;;;4.00;;
62977;SDS011;49073;42.352;23.808;2022-08-16T17:14:42;8.05;;;4.05;;
62977;SDS011;49073;42.352;23.808;2022-08-16T17:17:43;4.50;;;3.72;;
62977;SDS011;49073;42.352;23.808;2022-08-16T17:20:44;6.63;;;3.75;;
62977;SDS011;49073;42.352;23.808;2022-08-16T17:23:45;9.68;;;3.97;;
62977;SDS011;49073;42.352;23.808;2022-08-16T17:26:45;5.03;;;3.50;;
62977;SDS011;49073;42.352;23.808;2022-08-16T17:29:46;6.57;;;4.10;;
62977;SDS011;49073;42.352;23.808;2022-08-16T17:32:52;5.70;;;3.55;;
62977;SDS011;49073;42.352;23.808;2022-08-16T17:35:54;5.80;;;3.47;;
62977;SDS011;49073;42.352;23.808;2022-08-16T17:38:55;5.70;;;3.95;;
62977;SDS011;49073;42.352;23.808;2022-08-16T17:41:56;6.05;;;3.60;;
62977;SDS011;49073;42.352;23.808;2022-08-16T17:44:58;5.50;;;3.88;;
62977;SDS011;49073;42.352;23.808;2022-08-16T17:47:59;10.63;;;3.55;;
62977;SDS011;49073;42.352;23.808;2022-08-16T17:50:59;7.40;;;3.95;;